GEC711 ENGM-EDDS
Flight info
| Callsign | GEC711 |
|---|---|
| Flight time | N/A |
| Altitude | 34000 |
| Route | VIPPA DCT ELKOP DCT RETKA DCT DOROR/N0481F360 DCT SUSET/N0480F350 Z310 WOODY N872 NIK M624 DIK M150 PITES/N0444F230 M150 KRH T128 BADSO BADSO2A |
| Aircraft | MD11/H-SDE1E2E3FGHIJ2J3J4J5M1RWXY/LB1D1 |
Departure
| Time | 2026-05-05 18:57 |
|---|---|
| Airport | Oslo-Gardermoen International Airport (ENGM) |
Arrival
| Time | N/A |
|---|---|
| Airport | Stuttgart Airport (EDDS) |
| Time | Latitude | Longitude | Altitude | Speed | Heading |
|---|---|---|---|---|---|
| 2026-05-05 18:19 | 60.19143 | 11.08521 | 683 ft | 0 kts | 106° |
| 2026-05-05 18:49 | 60.19147 | 11.08493 | 684 ft | 4 kts | 106° |
| 2026-05-05 18:49 | 60.19155 | 11.08441 | 685 ft | 4 kts | 106° |
| 2026-05-05 18:49 | 60.19162 | 11.08394 | 683 ft | 3 kts | 107° |
| 2026-05-05 18:50 | 60.19171 | 11.08352 | 685 ft | 4 kts | 141° |
| 2026-05-05 18:50 | 60.19187 | 11.08336 | 684 ft | 4 kts | 189° |
| 2026-05-05 18:50 | 60.19212 | 11.08348 | 683 ft | 3 kts | 195° |
| 2026-05-05 18:50 | 60.19215 | 11.08350 | 683 ft | 0 kts | 195° |
| 2026-05-05 18:53 | 60.19211 | 11.08348 | 683 ft | 2 kts | 195° |
| 2026-05-05 18:53 | 60.19178 | 11.08329 | 682 ft | 9 kts | 195° |
| 2026-05-05 18:53 | 60.19104 | 11.08289 | 680 ft | 13 kts | 195° |
| 2026-05-05 18:53 | 60.19006 | 11.08234 | 682 ft | 17 kts | 195° |
| 2026-05-05 18:54 | 60.18881 | 11.08164 | 678 ft | 20 kts | 196° |
| 2026-05-05 18:54 | 60.18743 | 11.08083 | 676 ft | 22 kts | 196° |
| 2026-05-05 18:54 | 60.18598 | 11.07997 | 674 ft | 22 kts | 196° |
| 2026-05-05 18:54 | 60.18453 | 11.07919 | 674 ft | 21 kts | 194° |
| 2026-05-05 18:55 | 60.18361 | 11.07864 | 672 ft | 7 kts | 206° |
| 2026-05-05 18:55 | 60.18344 | 11.07775 | 673 ft | 7 kts | 275° |
| 2026-05-05 18:55 | 60.18371 | 11.07679 | 670 ft | 10 kts | 311° |
| 2026-05-05 18:55 | 60.18443 | 11.07566 | 671 ft | 14 kts | 324° |
| 2026-05-05 18:56 | 60.18519 | 11.07455 | 670 ft | 14 kts | 324° |
| 2026-05-05 18:56 | 60.18608 | 11.07436 | 671 ft | 14 kts | 14° |
| 2026-05-05 18:56 | 60.18827 | 11.07562 | 673 ft | 68 kts | 16° |
| 2026-05-05 18:56 | 60.19535 | 11.07966 | 677 ft | 141 kts | 16° |
| 2026-05-05 18:57 | 60.20643 | 11.08603 | 843 ft | 177 kts | 15° |
| 2026-05-05 18:57 | 60.21788 | 11.09234 | 1765 ft | 173 kts | 14° |
| 2026-05-05 18:57 | 60.22963 | 11.09898 | 2531 ft | 177 kts | 14° |
| 2026-05-05 18:57 | 60.24170 | 11.10600 | 3292 ft | 181 kts | 14° |
| 2026-05-05 18:58 | 60.25415 | 11.11177 | 3960 ft | 191 kts | 1° |
| 2026-05-05 18:58 | 60.26839 | 11.11010 | 4173 ft | 221 kts | 351° |
| 2026-05-05 18:58 | 60.28472 | 11.10568 | 4312 ft | 252 kts | 350° |
| 2026-05-05 18:58 | 60.30266 | 11.10053 | 4944 ft | 262 kts | 351° |
| 2026-05-05 18:59 | 60.32060 | 11.09530 | 5888 ft | 265 kts | 350° |
| 2026-05-05 18:59 | 60.33894 | 11.08988 | 6815 ft | 268 kts | 350° |
| 2026-05-05 18:59 | 60.35752 | 11.08434 | 7687 ft | 272 kts | 350° |
| 2026-05-05 18:59 | 60.37636 | 11.07865 | 8512 ft | 276 kts | 349° |
| 2026-05-05 19:00 | 60.39517 | 11.07035 | 9252 ft | 278 kts | 335° |
| 2026-05-05 19:00 | 60.41079 | 11.04801 | 10039 ft | 279 kts | 310° |
| 2026-05-05 19:00 | 60.42099 | 11.01308 | 10229 ft | 304 kts | 287° |
| 2026-05-05 19:00 | 60.42335 | 10.96902 | 10396 ft | 330 kts | 264° |
| 2026-05-05 19:01 | 60.41628 | 10.92419 | 10982 ft | 340 kts | 241° |
| 2026-05-05 19:01 | 60.40251 | 10.88493 | 11773 ft | 344 kts | 232° |
| 2026-05-05 19:01 | 60.38711 | 10.84860 | 12580 ft | 346 kts | 230° |
| 2026-05-05 19:01 | 60.37141 | 10.81177 | 13371 ft | 346 kts | 233° |
| 2026-05-05 19:02 | 60.35563 | 10.77498 | 14090 ft | 349 kts | 227° |
| 2026-05-05 19:02 | 60.33655 | 10.74426 | 14811 ft | 355 kts | 214° |
| 2026-05-05 19:02 | 60.31361 | 10.72477 | 15439 ft | 363 kts | 201° |
| 2026-05-05 19:02 | 60.28898 | 10.71172 | 16024 ft | 369 kts | 199° |
| 2026-05-05 19:03 | 60.26428 | 10.69756 | 16610 ft | 369 kts | 204° |
| 2026-05-05 19:03 | 60.24027 | 10.67927 | 17212 ft | 369 kts | 209° |
| 2026-05-05 19:03 | 60.21713 | 10.65740 | 17778 ft | 370 kts | 213° |
| 2026-05-05 19:03 | 60.19445 | 10.63290 | 18315 ft | 371 kts | 216° |
| 2026-05-05 19:04 | 60.17208 | 10.60827 | 18845 ft | 375 kts | 211° |
| 2026-05-05 19:04 | 60.14708 | 10.59118 | 19384 ft | 386 kts | 201° |
| 2026-05-05 19:04 | 60.12060 | 10.58002 | 19894 ft | 392 kts | 198° |
| 2026-05-05 19:04 | 60.09352 | 10.57105 | 20367 ft | 395 kts | 197° |
| 2026-05-05 19:05 | 60.06633 | 10.56260 | 20857 ft | 398 kts | 198° |
| 2026-05-05 19:05 | 60.03890 | 10.55391 | 21361 ft | 399 kts | 198° |
| 2026-05-05 19:05 | 60.01143 | 10.54491 | 21802 ft | 401 kts | 199° |
| 2026-05-05 19:05 | 59.98384 | 10.53562 | 22316 ft | 403 kts | 200° |
| 2026-05-05 19:06 | 59.95616 | 10.52616 | 22885 ft | 403 kts | 200° |
| 2026-05-05 19:06 | 59.92875 | 10.51668 | 23393 ft | 406 kts | 201° |
| 2026-05-05 19:06 | 59.90086 | 10.50698 | 23902 ft | 409 kts | 201° |
| 2026-05-05 19:06 | 59.87284 | 10.49723 | 24383 ft | 410 kts | 201° |
| 2026-05-05 19:07 | 59.84454 | 10.48739 | 24831 ft | 414 kts | 201° |
| 2026-05-05 19:07 | 59.81625 | 10.47758 | 25306 ft | 417 kts | 201° |
| 2026-05-05 19:07 | 59.78759 | 10.46768 | 25741 ft | 420 kts | 201° |
| 2026-05-05 19:07 | 59.75872 | 10.45774 | 26173 ft | 422 kts | 201° |
| 2026-05-05 19:08 | 59.72972 | 10.44774 | 26612 ft | 425 kts | 201° |
| 2026-05-05 19:08 | 59.70041 | 10.43769 | 27007 ft | 429 kts | 201° |
| 2026-05-05 19:08 | 59.67137 | 10.42778 | 27495 ft | 430 kts | 201° |
| 2026-05-05 19:08 | 59.64171 | 10.41764 | 27859 ft | 434 kts | 201° |
| 2026-05-05 19:09 | 59.61191 | 10.40749 | 28246 ft | 437 kts | 201° |
| 2026-05-05 19:09 | 59.58184 | 10.39729 | 28631 ft | 440 kts | 201° |
| 2026-05-05 19:09 | 59.55157 | 10.38710 | 29002 ft | 442 kts | 200° |
| 2026-05-05 19:09 | 59.52118 | 10.37687 | 29398 ft | 444 kts | 200° |
| 2026-05-05 19:10 | 59.49062 | 10.36658 | 29769 ft | 446 kts | 200° |
| 2026-05-05 19:10 | 59.45999 | 10.35628 | 30084 ft | 449 kts | 200° |
| 2026-05-05 19:10 | 59.42904 | 10.34585 | 30392 ft | 452 kts | 200° |
| 2026-05-05 19:10 | 59.39807 | 10.33543 | 30644 ft | 455 kts | 200° |
| 2026-05-05 19:11 | 59.36713 | 10.32501 | 30915 ft | 457 kts | 200° |
| 2026-05-05 19:11 | 59.33636 | 10.31162 | 31195 ft | 447 kts | 207° |
| 2026-05-05 19:11 | 59.30782 | 10.28981 | 31491 ft | 438 kts | 213° |
| 2026-05-05 19:11 | 59.28044 | 10.26394 | 31811 ft | 436 kts | 215° |
| 2026-05-05 19:12 | 59.25324 | 10.23766 | 32096 ft | 437 kts | 214° |
| 2026-05-05 19:12 | 59.22576 | 10.21214 | 32378 ft | 439 kts | 213° |
| 2026-05-05 19:12 | 59.19791 | 10.18753 | 32696 ft | 439 kts | 212° |
| 2026-05-05 19:12 | 59.16981 | 10.16369 | 32974 ft | 440 kts | 211° |
| 2026-05-05 19:13 | 59.14162 | 10.14037 | 33226 ft | 441 kts | 211° |
| 2026-05-05 19:13 | 59.11367 | 10.11756 | 33493 ft | 441 kts | 211° |
| 2026-05-05 19:13 | 59.08530 | 10.09456 | 33749 ft | 442 kts | 210° |
| 2026-05-05 19:13 | 59.05687 | 10.07156 | 33887 ft | 443 kts | 210° |
| 2026-05-05 19:14 | 58.99988 | 10.02549 | 33913 ft | 444 kts | 210° |
| 2026-05-05 19:14 | 58.94290 | 9.97957 | 33915 ft | 443 kts | 210° |
| 2026-05-05 19:15 | 58.88593 | 9.93378 | 33918 ft | 443 kts | 210° |
| 2026-05-05 19:15 | 58.82946 | 9.88856 | 33917 ft | 442 kts | 210° |
| 2026-05-05 19:16 | 58.77259 | 9.84319 | 33919 ft | 442 kts | 210° |
| 2026-05-05 19:16 | 58.71584 | 9.79808 | 33924 ft | 441 kts | 210° |
| 2026-05-05 19:17 | 58.65914 | 9.75315 | 33926 ft | 440 kts | 210° |
| 2026-05-05 19:17 | 58.60245 | 9.70843 | 33932 ft | 441 kts | 210° |
| 2026-05-05 19:18 | 58.54604 | 9.66456 | 33934 ft | 440 kts | 210° |
| 2026-05-05 19:18 | 58.48949 | 9.62051 | 33933 ft | 439 kts | 210° |
| 2026-05-05 19:19 | 58.43290 | 9.57639 | 33937 ft | 439 kts | 210° |
| 2026-05-05 19:19 | 58.37632 | 9.53235 | 33935 ft | 439 kts | 210° |
| 2026-05-05 19:20 | 58.31968 | 9.48836 | 33935 ft | 440 kts | 210° |
| 2026-05-05 19:20 | 58.26343 | 9.44485 | 33947 ft | 439 kts | 209° |
| 2026-05-05 19:21 | 58.20682 | 9.40126 | 33951 ft | 439 kts | 209° |
| 2026-05-05 19:21 | 58.15015 | 9.35774 | 33956 ft | 439 kts | 209° |
| 2026-05-05 19:22 | 58.09348 | 9.31435 | 33950 ft | 439 kts | 209° |
| 2026-05-05 19:22 | 58.03681 | 9.27117 | 33960 ft | 440 kts | 209° |
| 2026-05-05 19:23 | 57.98045 | 9.22836 | 33966 ft | 439 kts | 209° |
| 2026-05-05 19:23 | 57.92373 | 9.18541 | 33956 ft | 439 kts | 208° |
| 2026-05-05 19:24 | 57.86700 | 9.14258 | 33957 ft | 440 kts | 208° |
| 2026-05-05 19:24 | 57.81013 | 9.10000 | 33964 ft | 440 kts | 208° |
| 2026-05-05 19:25 | 57.75357 | 9.05803 | 33964 ft | 440 kts | 208° |
| 2026-05-05 19:25 | 57.69658 | 9.01563 | 33962 ft | 441 kts | 208° |
| 2026-05-05 19:26 | 57.63959 | 8.97325 | 33963 ft | 440 kts | 208° |
| 2026-05-05 19:26 | 57.58274 | 8.93111 | 33960 ft | 440 kts | 208° |
| 2026-05-05 19:27 | 57.52582 | 8.88903 | 33962 ft | 440 kts | 208° |
| 2026-05-05 19:27 | 57.46922 | 8.84727 | 33963 ft | 440 kts | 208° |
| 2026-05-05 19:28 | 57.41218 | 8.80532 | 33978 ft | 441 kts | 208° |
| 2026-05-05 19:28 | 57.35507 | 8.76352 | 33981 ft | 441 kts | 208° |
| 2026-05-05 19:29 | 57.29827 | 8.72207 | 33969 ft | 442 kts | 207° |
| 2026-05-05 19:29 | 57.24118 | 8.68057 | 33964 ft | 441 kts | 207° |
| 2026-05-05 19:30 | 57.18398 | 8.63912 | 33959 ft | 442 kts | 207° |
| 2026-05-05 19:30 | 57.12676 | 8.59777 | 33960 ft | 442 kts | 207° |
| 2026-05-05 19:31 | 57.06942 | 8.55650 | 33971 ft | 442 kts | 207° |
| 2026-05-05 19:31 | 57.01243 | 8.51601 | 33978 ft | 442 kts | 207° |
| 2026-05-05 19:32 | 56.95489 | 8.47513 | 33973 ft | 443 kts | 207° |
| 2026-05-05 19:32 | 56.89743 | 8.43429 | 33973 ft | 443 kts | 207° |
| 2026-05-05 19:33 | 56.83995 | 8.39346 | 33972 ft | 443 kts | 207° |
| 2026-05-05 19:33 | 56.78250 | 8.35276 | 33972 ft | 444 kts | 206° |
| 2026-05-05 19:34 | 56.72533 | 8.31239 | 33971 ft | 444 kts | 206° |
| 2026-05-05 19:35 | 56.63890 | 8.25166 | 33967 ft | 444 kts | 206° |
| 2026-05-05 19:35 | 56.58120 | 8.21123 | 33971 ft | 444 kts | 206° |
| 2026-05-05 19:36 | 56.52384 | 8.17114 | 33974 ft | 445 kts | 206° |
| 2026-05-05 19:36 | 56.46603 | 8.13098 | 33970 ft | 445 kts | 205° |
| 2026-05-05 19:37 | 56.40819 | 8.09094 | 33969 ft | 446 kts | 205° |
| 2026-05-05 19:37 | 56.35030 | 8.05096 | 33969 ft | 445 kts | 205° |
| 2026-05-05 19:38 | 56.29274 | 8.01131 | 33966 ft | 446 kts | 205° |
| 2026-05-05 19:38 | 56.23477 | 7.97187 | 33967 ft | 446 kts | 205° |
| 2026-05-05 19:39 | 56.17675 | 7.93248 | 33963 ft | 446 kts | 205° |
| 2026-05-05 19:39 | 56.11872 | 7.89298 | 33961 ft | 446 kts | 205° |
| 2026-05-05 19:40 | 56.07051 | 7.86018 | 33955 ft | 446 kts | 205° |
| 2026-05-05 19:40 | 56.01248 | 7.82087 | 33957 ft | 446 kts | 205° |
| 2026-05-05 19:41 | 55.95443 | 7.78161 | 33958 ft | 446 kts | 205° |
| 2026-05-05 19:41 | 55.89680 | 7.74278 | 33964 ft | 446 kts | 205° |
| 2026-05-05 19:42 | 55.83871 | 7.70374 | 34158 ft | 446 kts | 205° |
| 2026-05-05 19:42 | 55.80971 | 7.68431 | 34391 ft | 446 kts | 205° |
| 2026-05-05 19:42 | 55.78070 | 7.66493 | 34598 ft | 446 kts | 205° |
| 2026-05-05 19:42 | 55.74219 | 7.63923 | 34888 ft | 446 kts | 205° |
| 2026-05-05 19:43 | 55.72257 | 7.62616 | 34934 ft | 446 kts | 205° |
| 2026-05-05 19:43 | 55.66453 | 7.58759 | 34962 ft | 445 kts | 204° |
| 2026-05-05 19:44 | 55.60688 | 7.54935 | 34961 ft | 445 kts | 204° |
| 2026-05-05 19:44 | 55.54879 | 7.51096 | 34965 ft | 446 kts | 204° |
| 2026-05-05 19:45 | 55.49070 | 7.47282 | 34952 ft | 446 kts | 204° |
| 2026-05-05 19:45 | 55.43250 | 7.43498 | 34953 ft | 445 kts | 204° |
| 2026-05-05 19:46 | 55.37450 | 7.39715 | 34954 ft | 444 kts | 204° |
| 2026-05-05 19:46 | 55.31694 | 7.35962 | 34952 ft | 444 kts | 204° |
| 2026-05-05 19:47 | 55.25896 | 7.32192 | 34952 ft | 444 kts | 204° |
| 2026-05-05 19:47 | 55.20106 | 7.28437 | 34952 ft | 444 kts | 204° |
| 2026-05-05 19:48 | 55.14315 | 7.24694 | 34954 ft | 443 kts | 204° |
| 2026-05-05 19:48 | 55.08574 | 7.20992 | 34949 ft | 443 kts | 204° |
| 2026-05-05 19:49 | 55.02800 | 7.17283 | 34951 ft | 443 kts | 204° |
| 2026-05-05 19:49 | 54.97089 | 7.13358 | 34955 ft | 441 kts | 206° |
| 2026-05-05 19:50 | 54.91481 | 7.09125 | 34941 ft | 440 kts | 207° |
| 2026-05-05 19:50 | 54.85909 | 7.04881 | 34935 ft | 440 kts | 207° |
| 2026-05-05 19:51 | 54.80384 | 7.00703 | 34936 ft | 440 kts | 207° |
| 2026-05-05 19:51 | 54.74883 | 6.96573 | 34936 ft | 440 kts | 207° |
| 2026-05-05 19:52 | 54.70324 | 6.93158 | 34932 ft | 440 kts | 207° |
| 2026-05-05 19:52 | 54.65617 | 6.89639 | 34941 ft | 440 kts | 206° |
| 2026-05-05 19:53 | 54.60544 | 6.85859 | 34946 ft | 439 kts | 206° |
| 2026-05-05 19:53 | 54.55045 | 6.81774 | 34944 ft | 439 kts | 206° |
| 2026-05-05 19:54 | 54.49453 | 6.77628 | 34946 ft | 439 kts | 206° |
| 2026-05-05 19:54 | 54.43839 | 6.73481 | 34942 ft | 440 kts | 206° |
| 2026-05-05 19:55 | 54.38289 | 6.69398 | 34941 ft | 439 kts | 206° |
| 2026-05-05 19:55 | 54.32772 | 6.65351 | 34947 ft | 440 kts | 206° |
| 2026-05-05 19:56 | 54.27141 | 6.61229 | 34943 ft | 439 kts | 206° |
| 2026-05-05 19:56 | 54.21512 | 6.57141 | 34942 ft | 440 kts | 206° |
| 2026-05-05 19:57 | 54.15916 | 6.53106 | 34935 ft | 439 kts | 206° |
| 2026-05-05 19:57 | 54.10291 | 6.49040 | 34932 ft | 439 kts | 206° |
| 2026-05-05 19:58 | 54.04670 | 6.44978 | 34945 ft | 439 kts | 206° |
| 2026-05-05 19:58 | 53.99036 | 6.40913 | 34936 ft | 440 kts | 205° |
| 2026-05-05 19:59 | 53.93417 | 6.36872 | 34932 ft | 439 kts | 205° |
| 2026-05-05 19:59 | 53.87828 | 6.32864 | 34932 ft | 439 kts | 205° |
| 2026-05-05 20:00 | 53.82211 | 6.28850 | 34932 ft | 438 kts | 205° |
| 2026-05-05 20:00 | 53.76587 | 6.24841 | 34932 ft | 439 kts | 205° |
| 2026-05-05 20:01 | 53.70960 | 6.20843 | 34935 ft | 439 kts | 205° |
| 2026-05-05 20:01 | 53.65322 | 6.16847 | 34932 ft | 439 kts | 205° |
| 2026-05-05 20:02 | 53.59717 | 6.12886 | 34944 ft | 440 kts | 205° |
| 2026-05-05 20:02 | 53.54075 | 6.08912 | 34933 ft | 439 kts | 205° |
| 2026-05-05 20:03 | 53.48441 | 6.04957 | 34935 ft | 439 kts | 205° |
| 2026-05-05 20:03 | 53.42806 | 6.01040 | 34933 ft | 439 kts | 205° |
| 2026-05-05 20:04 | 53.37181 | 5.97137 | 34933 ft | 440 kts | 205° |
| 2026-05-05 20:04 | 53.31564 | 5.93235 | 34939 ft | 440 kts | 204° |
| 2026-05-05 20:05 | 53.25911 | 5.89310 | 34932 ft | 440 kts | 204° |
| 2026-05-05 20:05 | 53.20255 | 5.85392 | 34933 ft | 440 kts | 204° |
| 2026-05-05 20:06 | 53.14594 | 5.81480 | 34934 ft | 440 kts | 204° |
| 2026-05-05 20:06 | 53.08928 | 5.77582 | 34936 ft | 441 kts | 204° |
| 2026-05-05 20:07 | 53.03294 | 5.73717 | 34934 ft | 441 kts | 204° |
| 2026-05-05 20:07 | 52.97630 | 5.69838 | 34932 ft | 441 kts | 203° |
| 2026-05-05 20:08 | 52.91951 | 5.65962 | 34933 ft | 441 kts | 203° |
| 2026-05-05 20:08 | 52.86278 | 5.62102 | 34925 ft | 441 kts | 203° |
| 2026-05-05 20:09 | 52.80645 | 5.58281 | 34928 ft | 441 kts | 203° |
| 2026-05-05 20:09 | 52.75008 | 5.54467 | 34923 ft | 441 kts | 202° |
| 2026-05-05 20:10 | 52.69317 | 5.50633 | 34915 ft | 442 kts | 202° |
| 2026-05-05 20:10 | 52.63627 | 5.46838 | 34915 ft | 441 kts | 202° |
| 2026-05-05 20:11 | 52.57933 | 5.43035 | 34915 ft | 441 kts | 202° |
| 2026-05-05 20:11 | 52.52320 | 5.39281 | 34915 ft | 441 kts | 202° |
| 2026-05-05 20:12 | 52.46624 | 5.35478 | 34915 ft | 441 kts | 202° |
| 2026-05-05 20:12 | 52.40934 | 5.31691 | 34909 ft | 441 kts | 202° |
| 2026-05-05 20:13 | 52.35247 | 5.27919 | 34907 ft | 441 kts | 202° |
| 2026-05-05 20:13 | 52.29562 | 5.24153 | 34906 ft | 441 kts | 202° |
| 2026-05-05 20:14 | 52.23865 | 5.20576 | 34907 ft | 442 kts | 198° |
| 2026-05-05 20:14 | 52.17982 | 5.17635 | 34907 ft | 442 kts | 197° |
| 2026-05-05 20:15 | 52.12140 | 5.14760 | 34906 ft | 442 kts | 197° |
| 2026-05-05 20:15 | 52.06256 | 5.11771 | 34906 ft | 442 kts | 198° |
| 2026-05-05 20:16 | 52.00265 | 5.09961 | 34899 ft | 444 kts | 181° |
| 2026-05-05 20:16 | 51.94194 | 5.11530 | 34897 ft | 448 kts | 162° |
| 2026-05-05 20:17 | 51.88647 | 5.15810 | 34898 ft | 450 kts | 155° |
| 2026-05-05 20:17 | 51.82883 | 5.19651 | 34890 ft | 447 kts | 164° |
| 2026-05-05 20:18 | 51.76886 | 5.22280 | 34889 ft | 446 kts | 168° |
| 2026-05-05 20:18 | 51.70846 | 5.24466 | 34888 ft | 446 kts | 169° |
| 2026-05-05 20:19 | 51.64828 | 5.26651 | 34887 ft | 446 kts | 166° |
| 2026-05-05 20:19 | 51.58901 | 5.29645 | 34887 ft | 447 kts | 163° |
| 2026-05-05 20:20 | 51.53000 | 5.32797 | 34888 ft | 447 kts | 163° |
| 2026-05-05 20:20 | 51.47075 | 5.35834 | 34888 ft | 447 kts | 164° |
| 2026-05-05 20:21 | 51.41140 | 5.38804 | 34888 ft | 447 kts | 164° |
| 2026-05-05 20:21 | 51.35243 | 5.41732 | 34887 ft | 446 kts | 164° |
| 2026-05-05 20:22 | 51.29318 | 5.44667 | 34877 ft | 446 kts | 164° |
| 2026-05-05 20:22 | 51.23388 | 5.47603 | 34877 ft | 446 kts | 164° |
| 2026-05-05 20:23 | 51.17453 | 5.50529 | 34873 ft | 446 kts | 164° |
| 2026-05-05 20:23 | 51.11565 | 5.53424 | 34869 ft | 446 kts | 164° |
| 2026-05-05 20:24 | 51.05634 | 5.56333 | 34866 ft | 446 kts | 163° |
| 2026-05-05 20:24 | 50.99695 | 5.59238 | 34860 ft | 447 kts | 163° |
| 2026-05-05 20:25 | 50.93758 | 5.62135 | 34860 ft | 447 kts | 163° |
| 2026-05-05 20:25 | 50.87813 | 5.65027 | 34860 ft | 447 kts | 163° |
| 2026-05-05 20:26 | 50.81905 | 5.67869 | 34859 ft | 447 kts | 163° |
| 2026-05-05 20:26 | 50.75957 | 5.70734 | 34859 ft | 447 kts | 163° |
| 2026-05-05 20:27 | 50.70016 | 5.73599 | 34860 ft | 447 kts | 163° |
| 2026-05-05 20:27 | 50.64065 | 5.76463 | 34859 ft | 447 kts | 163° |
| 2026-05-05 20:28 | 50.58158 | 5.79298 | 34851 ft | 447 kts | 163° |
| 2026-05-05 20:28 | 50.52213 | 5.82146 | 34850 ft | 446 kts | 162° |
| 2026-05-05 20:29 | 50.46274 | 5.84983 | 34851 ft | 446 kts | 163° |
| 2026-05-05 20:29 | 50.40342 | 5.87807 | 34857 ft | 446 kts | 162° |
| 2026-05-05 20:30 | 50.34395 | 5.90632 | 34859 ft | 446 kts | 162° |
| 2026-05-05 20:30 | 50.28457 | 5.93447 | 34851 ft | 446 kts | 162° |
| 2026-05-05 20:31 | 50.22556 | 5.96236 | 34851 ft | 446 kts | 162° |
| 2026-05-05 20:31 | 50.16614 | 5.99037 | 34851 ft | 446 kts | 162° |
| 2026-05-05 20:32 | 50.10681 | 6.01828 | 34851 ft | 446 kts | 162° |
| 2026-05-05 20:32 | 50.04719 | 6.04607 | 34850 ft | 447 kts | 162° |
| 2026-05-05 20:33 | 49.98762 | 6.07373 | 34842 ft | 447 kts | 162° |
| 2026-05-05 20:33 | 49.92943 | 6.10407 | 34831 ft | 445 kts | 156° |
| 2026-05-05 20:34 | 49.87612 | 6.15240 | 34809 ft | 444 kts | 142° |
| 2026-05-05 20:34 | 49.83268 | 6.22059 | 34809 ft | 447 kts | 128° |
| 2026-05-05 20:35 | 49.80020 | 6.30275 | 34821 ft | 450 kts | 120° |
| 2026-05-05 20:35 | 49.77206 | 6.38950 | 34816 ft | 451 kts | 119° |
| 2026-05-05 20:36 | 49.74363 | 6.47596 | 34815 ft | 451 kts | 120° |
| 2026-05-05 20:36 | 49.71470 | 6.56121 | 34815 ft | 452 kts | 120° |
| 2026-05-05 20:37 | 49.68525 | 6.64705 | 34813 ft | 452 kts | 120° |
| 2026-05-05 20:37 | 49.65576 | 6.73269 | 34810 ft | 452 kts | 121° |
| 2026-05-05 20:38 | 49.62622 | 6.81832 | 34831 ft | 452 kts | 120° |
| 2026-05-05 20:38 | 49.59687 | 6.90326 | 34831 ft | 452 kts | 121° |
| 2026-05-05 20:39 | 49.56726 | 6.98859 | 34814 ft | 452 kts | 121° |
| 2026-05-05 20:39 | 49.53754 | 7.07398 | 34816 ft | 452 kts | 121° |
| 2026-05-05 20:40 | 49.50780 | 7.15908 | 34814 ft | 452 kts | 121° |
| 2026-05-05 20:40 | 49.47821 | 7.24345 | 34815 ft | 452 kts | 121° |
| 2026-05-05 20:41 | 49.44851 | 7.32790 | 34811 ft | 451 kts | 121° |
| 2026-05-05 20:41 | 49.41861 | 7.41259 | 34810 ft | 451 kts | 121° |
| 2026-05-05 20:42 | 49.38861 | 7.49733 | 34493 ft | 452 kts | 121° |
| 2026-05-05 20:42 | 49.37355 | 7.53980 | 34007 ft | 452 kts | 121° |
| 2026-05-05 20:42 | 49.35858 | 7.58196 | 33382 ft | 450 kts | 121° |
| 2026-05-05 20:42 | 49.34358 | 7.62411 | 32793 ft | 449 kts | 121° |
| 2026-05-05 20:43 | 49.32844 | 7.66613 | 32197 ft | 450 kts | 121° |
| 2026-05-05 20:43 | 49.31321 | 7.70806 | 31612 ft | 451 kts | 121° |
| 2026-05-05 20:43 | 49.29816 | 7.74956 | 31030 ft | 452 kts | 121° |
| 2026-05-05 20:43 | 49.28293 | 7.79172 | 30445 ft | 453 kts | 121° |
| 2026-05-05 20:44 | 49.26771 | 7.83390 | 29847 ft | 453 kts | 121° |
| 2026-05-05 20:44 | 49.25251 | 7.87598 | 29255 ft | 449 kts | 121° |
| 2026-05-05 20:44 | 49.23742 | 7.91775 | 28637 ft | 447 kts | 121° |
| 2026-05-05 20:44 | 49.22247 | 7.95912 | 28032 ft | 444 kts | 121° |
| 2026-05-05 20:45 | 49.19267 | 8.04142 | 26819 ft | 441 kts | 121° |
| 2026-05-05 20:45 | 49.17781 | 8.08236 | 26224 ft | 439 kts | 120° |
| 2026-05-05 20:45 | 49.16330 | 8.12233 | 25630 ft | 436 kts | 120° |
| 2026-05-05 20:46 | 49.14860 | 8.16282 | 25058 ft | 435 kts | 120° |
| 2026-05-05 20:46 | 49.13394 | 8.20312 | 24466 ft | 433 kts | 120° |
| 2026-05-05 20:46 | 49.11932 | 8.24325 | 23878 ft | 430 kts | 120° |
| 2026-05-05 20:46 | 49.10479 | 8.28300 | 23292 ft | 428 kts | 121° |
| 2026-05-05 20:47 | 49.09027 | 8.32247 | 22691 ft | 425 kts | 121° |
| 2026-05-05 20:47 | 49.07588 | 8.36152 | 22046 ft | 422 kts | 121° |
| 2026-05-05 20:47 | 49.06156 | 8.40039 | 21412 ft | 418 kts | 121° |
| 2026-05-05 20:47 | 49.04737 | 8.43894 | 20791 ft | 415 kts | 121° |
| 2026-05-05 20:48 | 49.03327 | 8.47720 | 20180 ft | 410 kts | 121° |
| 2026-05-05 20:48 | 49.01900 | 8.51413 | 19571 ft | 399 kts | 126° |
| 2026-05-05 20:48 | 49.00213 | 8.54674 | 18943 ft | 389 kts | 137° |
| 2026-05-05 20:48 | 48.98170 | 8.57166 | 18354 ft | 378 kts | 151° |
| 2026-05-05 20:49 | 48.95817 | 8.58769 | 17778 ft | 368 kts | 165° |
| 2026-05-05 20:49 | 48.93342 | 8.59497 | 17214 ft | 358 kts | 175° |
| 2026-05-05 20:49 | 48.90901 | 8.59988 | 16675 ft | 351 kts | 171° |
| 2026-05-05 20:49 | 48.88583 | 8.61098 | 16126 ft | 349 kts | 156° |
| 2026-05-05 20:50 | 48.86571 | 8.63129 | 15584 ft | 348 kts | 140° |
| 2026-05-05 20:50 | 48.85035 | 8.65950 | 15059 ft | 348 kts | 124° |
| 2026-05-05 20:50 | 48.84070 | 8.69313 | 14524 ft | 349 kts | 108° |
| 2026-05-05 20:50 | 48.83723 | 8.72935 | 14000 ft | 350 kts | 92° |
| 2026-05-05 20:51 | 48.83943 | 8.76617 | 13470 ft | 348 kts | 82° |
| 2026-05-05 20:51 | 48.84406 | 8.80203 | 12935 ft | 344 kts | 79° |
| 2026-05-05 20:51 | 48.84909 | 8.83671 | 12425 ft | 339 kts | 79° |
| 2026-05-05 20:51 | 48.85410 | 8.87152 | 11913 ft | 335 kts | 80° |
| 2026-05-05 20:52 | 48.85887 | 8.90604 | 11409 ft | 331 kts | 80° |
| 2026-05-05 20:52 | 48.86333 | 8.93920 | 11074 ft | 312 kts | 80° |
| 2026-05-05 20:52 | 48.86748 | 8.97117 | 10933 ft | 305 kts | 81° |
| 2026-05-05 20:52 | 48.87153 | 9.00272 | 10858 ft | 303 kts | 81° |
| 2026-05-05 20:53 | 48.87549 | 9.03404 | 10745 ft | 303 kts | 81° |
| 2026-05-05 20:53 | 48.87945 | 9.06550 | 10616 ft | 302 kts | 80° |
| 2026-05-05 20:53 | 48.88335 | 9.09685 | 10493 ft | 303 kts | 81° |
| 2026-05-05 20:53 | 48.88726 | 9.12830 | 10229 ft | 304 kts | 81° |
| 2026-05-05 20:54 | 48.89109 | 9.15958 | 9711 ft | 305 kts | 81° |
| 2026-05-05 20:54 | 48.89445 | 9.18683 | 9228 ft | 306 kts | 81° |
| 2026-05-05 20:54 | 48.89812 | 9.21680 | 8714 ft | 306 kts | 80° |
| 2026-05-05 20:54 | 48.90199 | 9.24818 | 8177 ft | 306 kts | 80° |
| 2026-05-05 20:55 | 48.90590 | 9.27974 | 7660 ft | 307 kts | 80° |
| 2026-05-05 20:55 | 48.90869 | 9.31138 | 7259 ft | 298 kts | 91° |
| 2026-05-05 20:55 | 48.90487 | 9.34197 | 6810 ft | 277 kts | 118° |
| 2026-05-05 20:55 | 48.89418 | 9.36372 | 6418 ft | 254 kts | 140° |
| 2026-05-05 20:56 | 48.88114 | 9.38082 | 6051 ft | 249 kts | 144° |
| 2026-05-05 20:56 | 48.86765 | 9.39719 | 5665 ft | 248 kts | 145° |
| 2026-05-05 20:56 | 48.85422 | 9.41305 | 5284 ft | 236 kts | 150° |
| 2026-05-05 20:56 | 48.83982 | 9.42189 | 5010 ft | 215 kts | 169° |
| 2026-05-05 20:57 | 48.82557 | 9.42669 | 4648 ft | 205 kts | 172° |
| 2026-05-05 20:57 | 48.81179 | 9.43093 | 4312 ft | 199 kts | 172° |
| 2026-05-05 20:57 | 48.79869 | 9.43499 | 4000 ft | 184 kts | 172° |